Time;durP1;ratioP1;P1;durP2;ratioP2;P2;SDS_P1;SDS_P2;PMS_P1;PMS_P2;Temp;Humidity;BMP_temperature;BMP_pressure;BME280_temperature;BME280_humidity;BME280_pressure;Samples;Min_cycle;Max_cycle;Signal;HPM_P1;HPM_P2
2022/11/23 00:01:33;;;;;;;141.27;44.78;;;;;;;0.40;100.00;99495.69;4962530;28;20062;-74
2022/11/23 00:04:05;;;;;;;111.93;40.95;;;;;;;0.42;100.00;99498.16;4956176;28;20039;-74
2022/11/23 00:06:32;;;;;;;118.90;41.05;;;;;;;0.43;100.00;99496.41;4962428;28;20481;-74
2022/11/23 00:08:58;;;;;;;140.00;41.00;;;;;;;0.39;100.00;99493.19;4959957;28;20037;-74
2022/11/23 00:11:25;;;;;;;124.05;37.13;;;;;;;0.48;100.00;99504.72;4957501;28;20071;-74
2022/11/23 00:13:52;;;;;;;137.68;40.10;;;;;;;0.46;100.00;99504.00;4960501;28;20133;-74
2022/11/23 00:16:23;;;;;;;130.13;43.25;;;;;;;0.36;100.00;99504.78;4962869;28;20035;-74
2022/11/23 00:18:52;;;;;;;106.95;34.25;;;;;;;0.46;100.00;99504.00;4965756;28;20027;-74
2022/11/23 00:21:19;;;;;;;133.38;44.03;;;;;;;0.34;100.00;99490.94;4968718;28;20078;-74
2022/11/23 00:23:44;;;;;;;138.75;42.08;;;;;;;0.36;100.00;99494.28;4967636;28;20035;-74
2022/11/23 00:26:11;;;;;;;128.80;42.58;;;;;;;0.32;100.00;99479.72;4960564;28;20507;-74
2022/11/23 00:28:38;;;;;;;;;;;;;;;0.31;100.00;99474.63;4941417;28;20039;-74
2022/11/23 00:31:09;;;;;;;125.30;38.58;;;;;;;0.33;100.00;99477.97;4964042;28;19941;-74
2022/11/23 00:33:34;;;;;;;130.52;40.47;;;;;;;0.38;100.00;99487.09;4958415;28;20063;-74
2022/11/23 00:36:04;;;;;;;124.53;37.97;;;;;;;0.44;100.00;99493.63;4962946;28;20114;-74
2022/11/23 00:38:30;;;;;;;118.85;37.00;;;;;;;0.50;100.00;99494.91;4951718;28;20049;-74
2022/11/23 00:41:08;;;;;;;116.47;38.60;;;;;;;0.47;100.00;99495.16;4959133;28;20043;-74
2022/11/23 00:43:33;;;;;;;111.40;37.05;;;;;;;0.53;100.00;99500.72;4958034;28;20506;-74
2022/11/23 00:46:07;;;;;;;117.03;37.42;;;;;;;0.41;100.00;99497.34;4945839;28;20086;-74
2022/11/23 00:48:33;;;;;;;122.95;40.13;;;;;;;0.51;100.00;99494.78;4958167;28;20039;-74
2022/11/23 00:51:03;;;;;;;123.00;39.40;;;;;;;0.53;100.00;99489.41;4954017;28;20043;-74
2022/11/23 00:53:28;;;;;;;124.15;38.95;;;;;;;0.49;100.00;99490.63;4956227;28;20559;-74
2022/11/23 00:55:55;;;;;;;116.65;37.50;;;;;;;0.55;100.00;99487.47;4964301;28;20031;-74
2022/11/23 00:58:21;;;;;;;150.63;39.60;;;;;;;0.60;100.00;99490.56;4970830;28;20385;-74
2022/11/23 01:00:46;;;;;;;122.40;39.55;;;;;;;0.47;100.00;99484.66;4953828;28;20094;-74
2022/11/23 01:03:13;;;;;;;119.03;38.40;;;;;;;0.55;100.00;99493.56;4948194;28;20047;-74
2022/11/23 01:05:38;;;;;;;118.05;40.42;;;;;;;0.51;100.00;99486.91;4961955;28;20169;-74
2022/11/23 01:08:05;;;;;;;104.70;36.15;;;;;;;0.64;100.00;99494.59;4958976;28;20483;-74
2022/11/23 01:10:30;;;;;;;109.38;36.15;;;;;;;0.63;100.00;99485.03;4957253;28;20031;-74
2022/11/23 01:12:56;;;;;;;123.80;36.17;;;;;;;0.56;100.00;99483.88;4937856;29;20031;-74
2022/11/23 01:15:21;;;;;;;108.45;35.95;;;;;;;0.74;100.00;99482.31;4954970;28;20050;-74
2022/11/23 01:17:47;;;;;;;119.17;37.77;;;;;;;0.75;100.00;99475.28;4965141;28;20076;-74
2022/11/23 01:20:12;;;;;;;118.13;38.37;;;;;;;0.64;100.00;99484.09;4959240;28;20282;-74
2022/11/23 01:22:38;;;;;;;119.28;38.30;;;;;;;0.69;100.00;99489.78;4960386;28;20058;-74
2022/11/23 01:25:04;;;;;;;99.23;34.73;;;;;;;0.70;100.00;99470.41;4946855;28;20030;-74
2022/11/23 01:27:30;;;;;;;118.15;37.42;;;;;;;0.69;100.00;99479.25;4950446;28;20389;-74
2022/11/23 01:29:56;;;;;;;107.20;35.20;;;;;;;0.68;100.00;99475.00;4963563;28;20027;-74
2022/11/23 01:32:22;;;;;;;111.63;35.93;;;;;;;0.62;100.00;99476.31;4961056;28;20133;-74
2022/11/23 01:34:47;;;;;;;109.03;34.37;;;;;;;0.67;100.00;99481.19;4959153;28;20089;-75
2022/11/23 01:37:12;;;;;;;107.23;36.77;;;;;;;0.67;100.00;99464.59;4963939;28;20282;-74
2022/11/23 01:39:38;;;;;;;109.90;37.13;;;;;;;0.64;100.00;99468.31;4960700;28;20030;-74
2022/11/23 01:42:07;;;;;;;97.13;34.75;;;;;;;0.72;100.00;99462.41;4951930;28;20278;-74
2022/11/23 01:44:35;;;;;;;131.35;39.38;;;;;;;0.66;100.00;99474.28;4955997;28;20043;-74
2022/11/23 01:47:03;;;;;;;117.28;38.50;;;;;;;0.65;100.00;99477.84;4945972;28;20567;-74
2022/11/23 01:49:38;;;;;;;110.15;38.85;;;;;;;0.66;100.00;99479.53;4956318;28;20086;-74
2022/11/23 01:52:08;;;;;;;115.35;38.72;;;;;;;0.61;100.00;99476.47;4963334;28;20047;-74
2022/11/23 01:54:38;;;;;;;120.38;38.20;;;;;;;0.73;100.00;99488.56;4955499;28;20039;-74
2022/11/23 01:57:09;;;;;;;100.25;38.85;;;;;;;0.78;100.00;99489.00;4952050;28;20485;-74
2022/11/23 01:59:35;;;;;;;110.07;36.78;;;;;;;0.71;100.00;99481.78;4955321;28;20066;-74
2022/11/23 02:02:02;;;;;;;109.43;39.15;;;;;;;0.76;100.00;99485.66;4958894;28;20261;-74
2022/11/23 02:04:35;;;;;;;107.25;36.47;;;;;;;0.81;100.00;99483.47;4949028;28;20464;-74
2022/11/23 02:07:02;;;;;;;94.30;32.63;;;;;;;0.79;100.00;99481.94;4953505;28;20050;-74
2022/11/23 02:09:30;;;;;;;102.88;36.47;;;;;;;0.73;100.00;99485.94;4965142;28;20126;-74
2022/11/23 02:11:56;;;;;;;104.38;39.13;;;;;;;0.69;100.00;99481.88;4966108;28;20035;-74
2022/11/23 02:14:22;;;;;;;93.95;35.55;;;;;;;0.78;100.00;99475.84;4949122;28;20043;-74
2022/11/23 02:16:47;;;;;;;111.47;35.93;;;;;;;0.77;100.00;99482.09;4958483;28;20355;-74
2022/11/23 02:19:40;;;;;;;99.35;36.88;;;;;;;0.79;100.00;99468.81;4958069;28;20035;-74
2022/11/23 02:22:13;;;;;;;104.10;32.22;;;;;;;0.84;100.00;99469.22;4952582;28;20046;-74
2022/11/23 02:24:44;;;;;;;101.82;36.17;;;;;;;0.83;100.00;99480.72;4954263;28;20031;-74
2022/11/23 02:27:09;;;;;;;94.30;34.47;;;;;;;0.86;100.00;99463.84;4956776;28;20039;-74
2022/11/23 02:29:35;;;;;;;103.95;35.47;;;;;;;0.79;100.00;99459.13;4944159;28;20050;-74
2022/11/23 02:32:01;;;;;;;92.50;34.17;;;;;;;0.77;100.00;99465.47;4960841;28;20498;-74
2022/11/23 02:34:26;;;;;;;86.80;33.13;;;;;;;0.82;100.00;99464.13;4949713;28;20564;-74
2022/11/23 02:36:54;;;;;;;92.85;34.58;;;;;;;0.77;100.00;99468.94;4952476;28;20031;-74
2022/11/23 02:39:43;;;;;;;91.63;35.53;;;;;;;0.83;100.00;99464.94;4947658;28;20039;-74
2022/11/23 02:42:09;;;;;;;103.72;35.47;;;;;;;0.80;100.00;99471.31;4955404;28;20039;-74
2022/11/23 02:44:53;;;;;;;97.80;36.03;;;;;;;0.81;100.00;99467.69;4960790;28;20089;-74
2022/11/23 02:47:18;;;;;;;100.63;32.28;;;;;;;0.77;100.00;99466.31;4953683;28;20045;-74
2022/11/23 02:49:48;;;;;;;104.27;35.13;;;;;;;0.78;100.00;99460.09;4947481;28;20034;-74
2022/11/23 02:52:15;;;;;;;90.88;33.75;;;;;;;0.80;100.00;99454.72;4931198;29;20047;-74
2022/11/23 02:54:40;;;;;;;95.05;35.17;;;;;;;0.75;100.00;99454.25;4950487;28;20027;-74
2022/11/23 02:57:07;;;;;;;105.03;38.67;;;;;;;0.78;100.00;99456.63;4950538;28;20042;-74
2022/11/23 02:59:32;;;;;;;97.43;33.75;;;;;;;0.80;100.00;99455.53;4950490;28;20042;-74
2022/11/23 03:01:59;;;;;;;99.35;32.75;;;;;;;0.82;100.00;99458.88;4947277;28;20127;-74
2022/11/23 03:04:24;;;;;;;101.30;33.40;;;;;;;0.84;100.00;99456.94;4959215;28;20086;-74
2022/11/23 03:06:50;;;;;;;;;;;;;;;0.90;100.00;99471.34;4934539;28;20039;-74
2022/11/23 03:09:16;;;;;;;87.50;33.63;;;;;;;0.87;100.00;99470.75;4947169;28;19984;-74
2022/11/23 03:11:41;;;;;;;90.07;33.47;;;;;;;0.91;100.00;99467.75;4950772;28;20410;-74
2022/11/23 03:14:06;;;;;;;103.13;35.60;;;;;;;0.89;100.00;99476.72;4959961;28;20077;-74
2022/11/23 03:16:40;;;;;;;96.13;35.28;;;;;;;0.87;100.00;99479.50;4963433;28;20022;-74
2022/11/23 03:19:06;;;;;;;86.53;31.38;;;;;;;0.93;100.00;99471.06;4961250;28;20394;-74
2022/11/23 03:21:31;;;;;;;100.03;34.67;;;;;;;0.90;100.00;99471.34;4964223;28;20141;-74
2022/11/23 03:24:02;;;;;;;93.50;33.10;;;;;;;0.90;100.00;99470.53;4951415;28;20042;-74
2022/11/23 03:26:27;;;;;;;102.70;32.88;;;;;;;0.91;100.00;99461.66;4952339;28;20039;-74
2022/11/23 03:29:01;;;;;;;83.68;30.33;;;;;;;0.99;100.00;99472.34;4954613;28;20023;-74
2022/11/23 03:31:28;;;;;;;89.22;32.05;;;;;;;0.91;100.00;99465.13;4954339;28;20488;-74
2022/11/23 03:33:54;;;;;;;92.32;34.05;;;;;;;0.91;100.00;99456.41;4960826;28;20042;-74
2022/11/23 03:36:19;;;;;;;94.40;33.55;;;;;;;0.91;100.00;99462.50;4948621;28;20122;-74
2022/11/23 03:38:46;;;;;;;82.72;32.80;;;;;;;0.96;100.00;99452.44;4939351;28;20587;-74
2022/11/23 03:41:39;;;;;;;95.90;35.15;;;;;;;0.89;100.00;99453.94;4948072;28;20492;-74
2022/11/23 03:44:05;;;;;;;92.50;34.50;;;;;;;0.90;100.00;99460.00;4951255;28;20112;-74
2022/11/23 03:46:31;;;;;;;89.88;33.85;;;;;;;0.87;100.00;99453.22;4953917;28;20119;-74
2022/11/23 03:48:56;;;;;;;93.15;33.83;;;;;;;0.92;100.00;99450.19;4940548;29;20031;-74
2022/11/23 03:51:22;;;;;;;84.37;33.03;;;;;;;0.90;100.00;99463.47;4957598;28;20051;-74
2022/11/23 03:53:48;;;;;;;83.95;31.80;;;;;;;0.91;100.00;99459.03;4938804;28;20289;-74
2022/11/23 03:56:13;;;;;;;91.53;31.75;;;;;;;1.01;100.00;99457.28;4945642;28;20558;-74
2022/11/23 03:58:43;;;;;;;86.20;33.60;;;;;;;0.96;100.00;99457.69;4936808;28;20042;-74
2022/11/23 04:01:11;;;;;;;104.03;33.63;;;;;;;0.98;100.00;99462.78;4945923;28;20026;-74
2022/11/23 04:03:37;;;;;;;73.53;30.10;;;;;;;1.03;100.00;99461.44;4963688;28;20045;-74
2022/11/23 04:06:13;;;;;;;;;;;;;;;1.02;100.00;99464.19;4951623;28;20039;-74
2022/11/23 04:08:55;;;;;;;75.75;29.35;;;;;;;1.04;100.00;99459.66;4963337;28;19922;-74
2022/11/23 04:11:33;;;;;;;93.72;34.67;;;;;;;1.07;100.00;99458.53;4952738;28;20039;-74
2022/11/23 04:13:59;;;;;;;85.40;34.00;;;;;;;1.05;100.00;99453.41;4951124;28;20042;-74
2022/11/23 04:16:24;;;;;;;83.30;31.23;;;;;;;1.05;100.00;99453.41;4945544;28;20556;-74
2022/11/23 04:18:50;;;;;;;84.68;31.52;;;;;;;1.10;100.00;99450.38;4962108;28;20716;-74
2022/11/23 04:21:15;;;;;;;75.83;29.57;;;;;;;1.09;100.00;99454.81;4945807;28;20118;-74
2022/11/23 04:23:42;;;;;;;86.35;29.45;;;;;;;1.10;100.00;99440.72;4957787;28;20031;-74
2022/11/23 04:26:09;;;;;;;77.90;31.35;;;;;;;1.10;100.00;99451.25;4945380;28;20105;-74
2022/11/23 04:28:38;;;;;;;80.90;31.50;;;;;;;1.17;100.00;99451.50;4947912;28;20031;-74
2022/11/23 04:31:04;;;;;;;75.45;30.48;;;;;;;1.13;100.00;99440.44;4950620;28;20452;-74
2022/11/23 04:33:38;;;;;;;82.93;32.17;;;;;;;1.18;100.00;99450.56;4963178;28;20023;-74
2022/11/23 04:36:07;;;;;;;88.45;29.92;;;;;;;1.22;100.00;99454.59;4955493;28;20105;-74
2022/11/23 04:38:33;;;;;;;84.00;29.88;;;;;;;1.21;100.00;99448.47;4968007;28;20090;-74
2022/11/23 04:40:59;;;;;;;78.55;32.08;;;;;;;1.22;100.00;99451.97;4946998;28;20035;-74
2022/11/23 04:43:25;;;;;;;69.88;28.33;;;;;;;1.25;100.00;99446.44;4966826;28;20042;-74
2022/11/23 04:45:50;;;;;;;80.32;28.88;;;;;;;1.30;100.00;99446.03;4955913;28;20031;-74
2022/11/23 04:48:22;;;;;;;83.88;29.38;;;;;;;1.34;100.00;99444.81;4951140;28;20073;-74
2022/11/23 04:50:48;;;;;;;72.97;27.63;;;;;;;1.32;100.00;99444.09;4941260;28;20034;-74
2022/11/23 04:53:21;;;;;;;76.93;28.33;;;;;;;1.39;100.00;99447.84;4955475;28;20050;-74
2022/11/23 04:55:46;;;;;;;82.13;32.28;;;;;;;1.30;100.00;99435.50;4960573;28;20030;-74
2022/11/23 04:58:12;;;;;;;72.97;28.90;;;;;;;1.40;100.00;99446.88;4954176;28;20528;-74
2022/11/23 05:00:38;;;;;;;82.45;29.38;;;;;;;1.44;100.00;99443.00;4956146;28;20030;-74
2022/11/23 05:03:04;;;;;;;;;;;;;;;1.40;100.00;99452.13;4948293;28;20045;-74
2022/11/23 05:05:32;;;;;;;73.53;29.08;;;;;;;1.39;100.00;99439.97;4972943;28;19996;-74
2022/11/23 05:07:58;;;;;;;75.60;28.23;;;;;;;1.44;100.00;99432.50;4967557;28;20547;-74
2022/11/23 05:10:31;;;;;;;73.03;27.75;;;;;;;1.44;100.00;99433.31;4956944;28;20054;-74
2022/11/23 05:12:57;;;;;;;73.65;29.00;;;;;;;1.48;100.00;99436.50;4957321;28;20093;-74
2022/11/23 05:15:23;;;;;;;77.20;28.90;;;;;;;1.55;100.00;99435.00;4956685;28;20035;-74
2022/11/23 05:17:48;;;;;;;68.30;26.25;;;;;;;1.59;100.00;99435.53;4959775;28;20031;-74
2022/11/23 05:20:22;;;;;;;75.63;28.80;;;;;;;1.57;100.00;99433.06;4954216;28;20118;-74
2022/11/23 05:22:48;;;;;;;79.78;29.52;;;;;;;1.55;100.00;99429.75;4965294;28;20398;-74
2022/11/23 05:25:17;;;;;;;67.60;27.08;;;;;;;1.62;100.00;99436.13;4953442;28;20062;-74
2022/11/23 05:27:44;;;;;;;72.60;28.83;;;;;;;1.64;100.00;99444.69;4939502;28;20606;-74
2022/11/23 05:30:10;;;;;;;71.80;27.38;;;;;;;1.67;100.00;99436.53;4953420;28;20524;-74
2022/11/23 05:32:36;;;;;;;76.60;27.00;;;;;;;1.60;100.00;99438.03;4960873;28;20042;-74
2022/11/23 05:35:01;;;;;;;78.25;28.40;;;;;;;1.62;100.00;99449.28;4953183;28;20118;-74
2022/11/23 05:37:29;;;;;;;71.95;28.95;;;;;;;1.65;100.00;99445.53;4966142;28;20556;-74
2022/11/23 05:39:59;;;;;;;68.28;27.92;;;;;;;1.68;100.00;99443.44;4954382;28;20519;-74
2022/11/23 05:42:24;;;;;;;79.95;30.02;;;;;;;1.62;100.00;99441.38;4956090;28;20035;-74
2022/11/23 05:44:53;;;;;;;76.47;26.08;;;;;;;1.64;100.00;99449.97;4952743;28;20031;-75
2022/11/23 05:47:25;;;;;;;69.78;27.42;;;;;;;1.65;100.00;99448.16;4955120;28;20035;-74
2022/11/23 05:49:51;;;;;;;61.47;26.92;;;;;;;1.66;100.00;99444.53;4961088;28;20046;-74
2022/11/23 05:52:20;;;;;;;63.85;26.35;;;;;;;1.66;100.00;99445.41;4964301;28;20046;-74
2022/11/23 05:54:46;;;;;;;76.07;26.73;;;;;;;1.62;100.00;99440.56;4960869;28;20808;-74
2022/11/23 05:57:14;;;;;;;75.03;28.58;;;;;;;1.66;100.00;99442.78;4947776;28;20401;-74
2022/11/23 05:59:41;;;;;;;56.00;26.10;;;;;;;1.67;100.00;99433.91;4961094;28;20029;-74
2022/11/23 06:02:10;;;;;;;73.93;28.70;;;;;;;1.70;100.00;99430.16;4966602;28;20492;-74
2022/11/23 06:04:35;;;;;;;63.05;27.15;;;;;;;1.74;100.00;99433.34;4956122;28;20069;-74
2022/11/23 06:07:01;;;;;;;63.22;25.50;;;;;;;1.76;100.00;99441.94;4962597;28;20063;-74
2022/11/23 06:09:39;;;;;;;62.80;26.52;;;;;;;1.74;100.00;99431.56;4954783;28;20038;-74
2022/11/23 06:12:08;;;;;;;63.85;25.20;;;;;;;1.78;100.00;99429.47;4946557;28;20035;-74
2022/11/23 06:14:33;;;;;;;68.07;25.45;;;;;;;1.80;100.00;99427.53;4966325;28;20531;-74
2022/11/23 06:16:59;;;;;;;58.50;23.02;;;;;;;1.81;100.00;99427.41;4957352;28;20070;-74
2022/11/23 06:19:35;;;;;;;64.65;26.60;;;;;;;1.91;100.00;99437.91;4952437;28;20106;-74
2022/11/23 06:22:00;;;;;;;59.28;25.75;;;;;;;1.83;100.00;99427.28;4946523;28;20130;-74
2022/11/23 06:24:29;;;;;;;64.22;25.15;;;;;;;1.82;100.00;99430.84;4967394;28;20058;-74
2022/11/23 06:27:16;;;;;;;;;;;;;;;1.89;100.00;99432.78;4951350;28;20059;-74
2022/11/23 06:29:42;;;;;;;60.08;24.20;;;;;;;1.92;100.00;99431.69;4954336;28;20471;-74
2022/11/23 06:32:07;;;;;;;57.53;24.70;;;;;;;1.96;100.00;99430.44;4943059;29;20126;-74
2022/11/23 06:34:33;;;;;;;54.47;24.23;;;;;;;1.94;100.00;99439.44;4965584;28;20106;-74
2022/11/23 06:36:58;;;;;;;53.30;23.27;;;;;;;1.93;100.00;99433.34;4953356;28;20039;-74
2022/11/23 06:39:23;;;;;;;51.00;23.27;;;;;;;1.96;100.00;99427.78;4954376;28;20478;-74
2022/11/23 06:41:49;;;;;;;54.53;21.10;;;;;;;1.95;100.00;99438.50;4939219;28;20126;-73
2022/11/23 06:44:15;;;;;;;66.20;23.90;;;;;;;1.94;100.00;99429.72;4947347;28;20066;-73
2022/11/23 06:46:42;;;;;;;56.47;24.98;;;;;;;1.99;100.00;99438.06;4959066;28;20386;-73
2022/11/23 06:49:07;;;;;;;56.60;23.63;;;;;;;1.97;100.00;99440.00;4945385;28;20096;-72
2022/11/23 06:51:33;;;;;;;51.10;23.20;;;;;;;2.06;100.00;99441.81;4949209;28;20046;-73
2022/11/23 06:53:58;;;;;;;59.23;25.07;;;;;;;2.03;100.00;99438.59;4949475;28;20043;-73
2022/11/23 06:56:24;;;;;;;58.13;22.88;;;;;;;2.02;100.00;99437.78;4935401;29;20418;-72
2022/11/23 06:58:50;;;;;;;54.20;23.35;;;;;;;2.03;100.00;99442.06;4963462;28;20042;-73
2022/11/23 07:01:20;;;;;;;60.72;23.92;;;;;;;2.05;100.00;99448.03;4940260;28;20428;-73
2022/11/23 07:03:52;;;;;;;45.75;21.17;;;;;;;2.04;100.00;99442.91;4934878;28;20031;-72
2022/11/23 07:06:24;;;;;;;55.47;24.45;;;;;;;2.05;100.00;99445.38;4947273;28;20049;-73
2022/11/23 07:08:54;;;;;;;52.20;21.85;;;;;;;2.10;100.00;99440.53;4941476;28;20019;-73
2022/11/23 07:11:27;;;;;;;54.25;23.35;;;;;;;2.18;100.00;99452.16;4952498;28;20520;-73
2022/11/23 07:13:53;;;;;;;51.20;22.30;;;;;;;2.17;100.00;99450.50;4951422;28;20117;-72
2022/11/23 07:16:19;;;;;;;45.30;20.60;;;;;;;2.21;100.00;99444.00;4947474;28;20022;-73
2022/11/23 07:18:45;;;;;;;52.40;22.33;;;;;;;2.20;100.00;99445.81;4966574;28;20181;-73
2022/11/23 07:21:10;;;;;;;44.67;21.30;;;;;;;2.23;100.00;99449.97;4950148;28;20043;-73
2022/11/23 07:23:39;;;;;;;48.03;20.77;;;;;;;2.27;100.00;99461.84;4950474;28;20885;-73
2022/11/23 07:26:05;;;;;;;49.22;20.70;;;;;;;2.31;100.00;99460.63;4950080;28;20030;-73
2022/11/23 07:28:31;;;;;;;49.47;21.08;;;;;;;2.36;100.00;99468.91;4962936;28;21019;-72
2022/11/23 07:30:57;;;;;;;47.88;20.58;;;;;;;2.40;100.00;99462.41;4966126;28;20058;-72
2022/11/23 07:33:22;;;;;;;54.67;19.57;;;;;;;2.40;100.00;99461.56;4966307;28;20070;-73
2022/11/23 07:35:49;;;;;;;40.97;20.10;;;;;;;2.34;100.00;99447.16;4954546;28;20114;-73
2022/11/23 07:38:14;;;;;;;44.43;19.43;;;;;;;2.37;100.00;99454.78;4938816;28;20182;-75
2022/11/23 07:40:41;;;;;;;48.13;19.60;;;;;;;2.38;100.00;99464.34;4953986;28;20563;-73
2022/11/23 07:43:14;;;;;;;59.58;23.45;;;;;;;2.43;100.00;99471.81;4937925;28;20062;-73
2022/11/23 07:45:39;;;;;;;42.53;18.77;;;;;;;2.45;100.00;99470.69;4949742;28;20095;-72
2022/11/23 07:48:08;;;;;;;45.40;19.85;;;;;;;2.46;100.00;99475.03;4946629;28;20077;-73
2022/11/23 07:50:35;;;;;;;53.97;21.90;;;;;;;2.50;100.00;99478.19;4949359;28;20031;-73
2022/11/23 07:53:01;;;;;;;45.45;19.50;;;;;;;2.41;100.00;99474.63;4948094;28;20043;-73
2022/11/23 07:55:27;;;;;;;;;;;;;;;2.43;100.00;99483.19;4941095;28;20118;-72
2022/11/23 07:57:53;;;;;;;49.85;20.55;;;;;;;2.42;100.00;99478.91;4948358;28;20054;-73
2022/11/23 08:00:20;;;;;;;49.33;20.88;;;;;;;2.42;100.00;99486.81;4947966;29;20046;-73
2022/11/23 08:02:46;;;;;;;47.47;21.23;;;;;;;2.44;100.00;99490.13;4946788;28;20393;-72
2022/11/23 08:05:12;;;;;;;45.25;18.90;;;;;;;2.49;100.00;99492.34;4950446;28;20043;-73
2022/11/23 08:07:37;;;;;;;47.25;21.65;;;;;;;2.52;100.00;99497.31;4961335;28;20066;-73
2022/11/23 08:10:03;;;;;;;56.53;21.03;;;;;;;2.42;100.00;99497.34;4965609;28;20122;-73
2022/11/23 08:12:29;;;;;;;45.75;20.30;;;;;;;2.50;100.00;99505.34;4966901;28;20333;-72
2022/11/23 08:14:54;;;;;;;50.77;20.90;;;;;;;2.57;100.00;99515.34;4957016;28;20054;-73
2022/11/23 08:17:19;;;;;;;51.40;21.03;;;;;;;2.65;100.00;99524.22;4967708;28;20314;-73
2022/11/23 08:19:45;;;;;;;55.67;23.93;;;;;;;2.60;100.00;99522.97;4970917;28;20035;-73
2022/11/23 08:22:10;;;;;;;54.57;21.27;;;;;;;2.53;100.00;99533.25;4969725;28;20034;-73
2022/11/23 08:24:35;;;;;;;50.60;21.47;;;;;;;2.61;100.00;99538.63;4969949;28;20062;-73
2022/11/23 08:27:01;;;;;;;52.17;23.23;;;;;;;2.56;100.00;99532.97;4970533;28;20476;-72
2022/11/23 08:29:27;;;;;;;51.73;21.40;;;;;;;2.60;100.00;99536.13;4964211;28;20505;-73
2022/11/23 08:31:52;;;;;;;62.85;24.30;;;;;;;2.60;100.00;99544.03;4939740;28;20067;-72
2022/11/23 08:34:18;;;;;;;51.27;23.40;;;;;;;2.64;100.00;99545.44;4950284;28;20082;-73
2022/11/23 08:36:44;;;;;;;45.83;22.02;;;;;;;2.70;100.00;99547.50;4949756;28;20299;-72
2022/11/23 08:39:10;;;;;;;;;;;;;;;2.78;100.00;99552.06;4950424;28;20031;-73
2022/11/23 08:41:37;;;;;;;55.63;22.38;;;;;;;2.86;100.00;99554.84;4978992;28;19914;-72
2022/11/23 08:44:03;;;;;;;59.05;22.42;;;;;;;2.85;100.00;99553.97;4950192;28;20050;-72
2022/11/23 08:46:28;;;;;;;47.72;19.13;;;;;;;2.98;100.00;99558.16;4963997;28;20050;-73
2022/11/23 08:48:53;;;;;;;52.47;22.53;;;;;;;2.89;100.00;99552.72;4966889;28;20143;-72
2022/11/23 08:51:21;;;;;;;49.33;20.27;;;;;;;2.93;100.00;99558.56;4957435;28;20328;-73
2022/11/23 08:53:50;;;;;;;47.53;21.42;;;;;;;3.01;100.00;99560.47;4952745;28;20046;-73
2022/11/23 08:56:15;;;;;;;54.63;22.75;;;;;;;3.00;100.00;99558.81;4969855;28;20034;-73
2022/11/23 08:58:41;;;;;;;52.15;22.75;;;;;;;2.94;100.00;99557.59;4968533;28;20114;-72
2022/11/23 09:01:11;;;;;;;55.67;23.30;;;;;;;2.99;100.00;99562.44;4952743;28;20039;-72
2022/11/23 09:03:37;;;;;;;49.30;21.35;;;;;;;3.07;100.00;99555.47;4970121;28;20034;-72
2022/11/23 09:06:03;;;;;;;46.67;21.77;;;;;;;3.14;100.00;99561.84;4968751;28;20026;-73
2022/11/23 09:08:28;;;;;;;44.90;19.40;;;;;;;3.11;100.00;99558.63;4968451;28;20097;-72
2022/11/23 09:10:58;;;;;;;44.20;20.13;;;;;;;3.07;100.00;99562.56;4950354;28;20086;-72
2022/11/23 09:13:23;;;;;;;48.38;18.05;;;;;;;3.07;100.00;99565.19;4949758;28;20051;-72
2022/11/23 09:15:49;;;;;;;51.97;21.43;;;;;;;3.10;100.00;99564.91;4957740;28;20026;-72
2022/11/23 09:18:14;;;;;;;39.93;19.10;;;;;;;3.15;100.00;99566.13;4959571;28;20037;-72
2022/11/23 09:20:39;;;;;;;47.80;21.40;;;;;;;3.14;100.00;99567.09;4969522;28;20038;-72
2022/11/23 09:23:05;;;;;;;46.43;20.07;;;;;;;3.15;100.00;99576.66;4964018;28;20122;-72
2022/11/23 09:25:30;;;;;;;46.90;20.77;;;;;;;3.24;100.00;99567.06;4964543;28;20137;-72
2022/11/23 09:27:58;;;;;;;44.87;21.07;;;;;;;3.47;100.00;99577.28;4950386;28;20035;-72
2022/11/23 09:30:24;;;;;;;43.28;21.02;;;;;;;3.65;100.00;99574.69;4952701;28;20047;-72
2022/11/23 09:32:50;;;;;;;38.45;18.80;;;;;;;3.56;100.00;99579.88;4964045;28;20041;-73
2022/11/23 09:35:15;;;;;;;45.27;19.80;;;;;;;3.57;100.00;99567.50;4951524;28;20042;-73
2022/11/23 09:37:40;;;;;;;45.90;19.33;;;;;;;3.48;100.00;99571.00;4966718;28;20382;-73
2022/11/23 09:40:06;;;;;;;40.07;20.13;;;;;;;3.46;100.00;99571.13;4962886;28;20110;-72
2022/11/23 09:42:50;;;;;;;44.72;20.17;;;;;;;3.49;100.00;99580.56;4951668;28;20039;-73
2022/11/23 09:45:43;;;;;;;48.22;22.17;;;;;;;3.45;100.00;99579.22;4954745;28;20550;-73
2022/11/23 09:48:42;;;;;;;37.28;20.05;;;;;;;3.54;100.00;99578.34;4960303;28;20046;-73
2022/11/23 09:51:16;;;;;;;45.35;19.30;;;;;;;3.48;100.00;99574.47;4967346;28;20085;-72
2022/11/23 09:53:49;;;;;;;42.72;20.40;;;;;;;3.56;100.00;99571.13;4959569;28;20035;-73
2022/11/23 09:56:25;;;;;;;52.60;21.05;;;;;;;3.76;100.00;99575.31;4956164;28;20090;-73
2022/11/23 09:58:54;;;;;;;43.83;19.50;;;;;;;3.64;100.00;99573.84;4964098;28;20035;-72
2022/11/23 10:01:20;;;;;;;45.95;20.38;;;;;;;3.56;100.00;99566.66;4968544;28;20038;-72
2022/11/23 10:03:46;;;;;;;43.65;19.83;;;;;;;3.74;100.00;99574.63;4968772;28;20035;-72
2022/11/23 10:06:24;;;;;;;42.72;19.60;;;;;;;4.00;100.00;99576.56;4954033;28;20051;-73
2022/11/23 10:09:11;;;;;;;45.38;19.55;;;;;;;3.91;100.00;99574.81;4967824;28;20370;-73
2022/11/23 10:11:39;;;;;;;44.90;18.33;;;;;;;4.05;100.00;99570.84;4966728;28;20039;-73
2022/11/23 10:14:35;;;;;;;35.45;17.77;;;;;;;4.00;100.00;99568.63;4951026;28;20023;-73
2022/11/23 10:17:24;;;;;;;39.05;19.45;;;;;;;3.95;100.00;99561.16;4964020;28;20532;-73
2022/11/23 10:19:59;;;;;;;44.20;20.52;;;;;;;4.01;100.00;99565.03;4950202;28;20038;-73
2022/11/23 10:22:50;;;;;;;43.00;18.50;;;;;;;4.09;100.00;99569.56;4955776;28;20085;-73
2022/11/23 10:25:18;;;;;;;39.53;18.65;;;;;;;3.99;100.00;99556.41;4959747;28;20282;-73
2022/11/23 10:27:47;;;;;;;33.50;18.48;;;;;;;4.05;100.00;99569.03;4965100;28;20037;-72
2022/11/23 10:30:16;;;;;;;39.13;19.48;;;;;;;4.05;100.00;99562.91;4966693;28;20050;-73
2022/11/23 10:32:52;;;;;;;39.55;19.35;;;;;;;4.05;100.00;99566.41;4962976;28;20093;-73
2022/11/23 10:35:26;;;;;;;37.97;19.30;;;;;;;4.08;100.00;99571.38;4963864;28;20113;-73
2022/11/23 10:38:01;;;;;;;36.20;20.08;;;;;;;4.09;100.00;99564.28;4960837;28;20497;-73
2022/11/23 10:40:28;;;;;;;38.53;18.02;;;;;;;4.17;100.00;99564.38;4967289;28;20034;-73
2022/11/23 10:43:07;;;;;;;39.67;20.40;;;;;;;4.12;100.00;99567.47;4952117;28;20110;-73
2022/11/23 10:45:32;;;;;;;35.92;18.83;;;;;;;4.07;100.00;99564.41;4959907;28;20030;-73
2022/11/23 10:47:59;;;;;;;35.13;18.00;;;;;;;4.04;100.00;99564.72;4961427;28;20088;-73
2022/11/23 10:50:24;;;;;;;;;;;;;;;4.26;100.00;99567.91;4973816;28;20046;-73
2022/11/23 10:53:18;;;;;;;38.65;18.83;;;;;;;4.15;100.00;99561.88;4964934;28;19921;-73
2022/11/23 10:55:48;;;;;;;42.03;19.25;;;;;;;4.17;100.00;99565.19;4957222;28;20058;-73
2022/11/23 10:58:40;;;;;;;34.95;17.48;;;;;;;4.11;100.00;99563.16;4953096;28;20404;-72
2022/11/23 11:01:13;;;;;;;38.58;18.55;;;;;;;4.22;100.00;99570.03;4950436;28;20042;-73
2022/11/23 11:03:39;;;;;;;33.50;16.77;;;;;;;4.42;100.00;99568.06;4966745;28;20538;-73
2022/11/23 11:06:05;;;;;;;49.55;20.83;;;;;;;4.71;100.00;99567.00;4966318;28;20089;-72
2022/11/23 11:08:36;;;;;;;40.38;18.27;;;;;;;4.77;100.00;99563.72;4967758;28;20037;-73
2022/11/23 11:11:05;;;;;;;35.22;17.10;;;;;;;4.41;100.00;99551.38;4931150;29;20489;-73
2022/11/23 11:13:38;;;;;;;33.92;17.23;;;;;;;4.34;100.00;99555.59;4961580;28;20535;-73
2022/11/23 11:16:06;;;;;;;35.08;17.88;;;;;;;4.23;100.00;99538.16;4954642;28;20105;-73
2022/11/23 11:18:34;;;;;;;32.45;17.25;;;;;;;4.54;100.00;99551.00;4969641;28;20027;-73
2022/11/23 11:21:06;;;;;;;33.90;18.13;;;;;;;4.79;100.00;99546.72;4958885;28;20117;-72
2022/11/23 11:23:33;;;;;;;41.03;18.70;;;;;;;4.70;100.00;99554.75;4955044;28;20806;-72